Terminal Aerodrome Forecast
Issued by NWS

Home | Current Version | Previous Version | Text Only | Print | Product List | Glossary On
Versions: 1 2 3 4 5 6 7 8 9 10 11 12 13 14 15 16 17 18 19 20 21 22 23 24 25 26 27 28 29 30 31 32 33 34 35 36 37 38 39 40
000
FTUS42 KJAX 191723
TAFVQQ
TAF
KVQQ 191723Z 1918/2018 22010KT 5SM TSRA BR BKN025CB BKN100
      TEMPO 1918/1920 2SM +TSRA BR SCT025CB OVC040
     FM192200 23010KT P6SM VCTS SCT025CB BKN150 BKN250
     FM200100 21008KT P6SM SCT020 BKN250
      TEMPO 2009/2013 BKN020
     FM201300 23012KT P6SM SCT025 BKN250=

USA.gov is the U.S. government's official web portal to all federal, state and local government web resources and services.